Time,TemperatureF,DewpointF,PressureIn,WindDirection,WindDirectionDegrees,WindSpeedMPH,WindSpeedGustMPH,Humidity,HourlyPrecipIn,Conditions,Clouds,dailyrainin,SoftwareType,DateUTC
2013-07-22 00:00:00,75.3,71.5,30.11,South,171,0.0,0.0,88,0.00,,---,0.00,VWS V14.01,2013-07-22 04:00:00,
2013-07-22 00:01:00,75.3,71.5,30.11,South,171,0.0,0.0,88,0.00,,---,0.00,VWS V14.01,2013-07-22 04:01:00,
2013-07-22 00:06:00,75.2,71.4,30.11,South,171,0.0,0.0,88,0.00,,---,0.00,VWS V14.01,2013-07-22 04:06:00,
2013-07-22 00:11:00,75.1,71.6,30.11,South,171,0.0,0.0,89,0.00,,---,0.00,VWS V14.01,2013-07-22 04:11:00,
2013-07-22 00:16:00,75.1,71.6,30.11,South,171,0.0,1.0,89,0.00,,---,0.00,VWS V14.01,2013-07-22 04:16:00,
2013-07-22 00:21:00,75.0,71.5,30.11,South,171,0.0,0.0,89,0.00,,---,0.00,VWS V14.01,2013-07-22 04:21:00,
2013-07-22 00:26:00,74.9,71.4,30.11,South,171,0.0,2.0,89,0.00,,---,0.00,VWS V14.01,2013-07-22 04:26:00,
2013-07-22 00:31:00,74.8,71.3,30.11,South,171,0.0,0.0,89,0.00,,---,0.00,VWS V14.01,2013-07-22 04:31:00,
2013-07-22 00:36:00,74.7,71.2,30.11,South,171,0.0,0.0,89,0.00,,---,0.00,VWS V14.01,2013-07-22 04:36:00,
2013-07-22 00:41:00,74.6,71.2,30.11,South,171,0.0,0.0,89,0.00,,---,0.00,VWS V14.01,2013-07-22 04:41:00,
2013-07-22 00:46:00,74.5,71.1,30.11,South,171,0.0,4.0,89,0.00,,---,0.00,VWS V14.01,2013-07-22 04:46:00,
2013-07-22 00:51:00,74.5,71.1,30.11,South,171,0.0,0.0,89,0.00,,---,0.00,VWS V14.01,2013-07-22 04:51:00,
2013-07-22 00:56:00,74.4,71.3,30.10,South,171,0.0,2.0,90,0.00,,---,0.00,VWS V14.01,2013-07-22 04:56:00,
2013-07-22 01:01:00,74.4,71.3,30.10,South,172,0.0,0.0,90,0.00,,---,0.00,VWS V14.01,2013-07-22 05:01:00,
2013-07-22 01:06:00,74.3,71.2,30.10,South,171,0.0,2.0,90,0.00,,---,0.00,VWS V14.01,2013-07-22 05:06:00,
2013-07-22 01:11:00,74.2,71.1,30.10,South,171,0.0,0.0,90,0.00,,---,0.00,VWS V14.01,2013-07-22 05:11:00,
2013-07-22 01:16:00,74.2,71.1,30.10,South,171,0.0,0.0,90,0.00,,---,0.00,VWS V14.01,2013-07-22 05:16:00,
2013-07-22 01:21:00,74.1,71.0,30.10,South,171,0.0,0.0,90,0.00,,---,0.00,VWS V14.01,2013-07-22 05:21:00,
2013-07-22 01:26:00,74.1,71.0,30.10,South,171,0.0,0.0,90,0.00,,---,0.00,VWS V14.01,2013-07-22 05:26:00,
2013-07-22 01:31:00,74.1,71.0,30.10,South,171,0.0,0.0,90,0.00,,---,0.00,VWS V14.01,2013-07-22 05:31:00,
2013-07-22 01:36:00,74.1,71.0,30.10,South,171,0.0,0.0,90,0.00,,---,0.00,VWS V14.01,2013-07-22 05:36:00,
2013-07-22 01:41:00,74.1,71.0,30.10,South,171,0.0,0.0,90,0.00,,---,0.00,VWS V14.01,2013-07-22 05:41:00,
2013-07-22 01:46:00,74.1,71.3,30.09,South,171,2.0,4.0,91,0.00,,---,0.00,VWS V14.01,2013-07-22 05:46:00,
2013-07-22 01:51:00,74.1,71.3,30.09,South,171,2.0,2.0,91,0.00,,---,0.00,VWS V14.01,2013-07-22 05:51:00,
2013-07-22 01:56:00,74.0,70.9,30.09,South,171,2.0,4.0,90,0.00,,---,0.00,VWS V14.01,2013-07-22 05:56:00,
2013-07-22 02:01:00,74.0,70.9,30.09,South,171,0.0,0.0,90,0.00,,---,0.00,VWS V14.01,2013-07-22 06:01:00,
2013-07-22 02:06:00,74.0,70.9,30.09,South,171,0.0,2.0,90,0.00,,---,0.00,VWS V14.01,2013-07-22 06:06:00,
2013-07-22 02:11:00,74.0,71.2,30.09,South,171,0.0,0.0,91,0.00,,---,0.00,VWS V14.01,2013-07-22 06:11:00,
2013-07-22 02:16:00,74.0,71.2,30.08,South,171,1.0,5.0,91,0.00,,---,0.00,VWS V14.01,2013-07-22 06:16:00,
2013-07-22 02:21:00,74.0,71.2,30.08,South,171,0.0,0.0,91,0.00,,---,0.00,VWS V14.01,2013-07-22 06:21:00,
2013-07-22 02:26:00,74.0,71.2,30.08,South,171,0.0,1.0,91,0.00,,---,0.00,VWS V14.01,2013-07-22 06:26:00,
2013-07-22 02:31:00,73.9,71.1,30.08,South,171,0.0,0.0,91,0.00,,---,0.00,VWS V14.01,2013-07-22 06:31:00,
2013-07-22 02:36:00,73.9,71.1,30.08,South,171,0.0,0.0,91,0.00,,---,0.00,VWS V14.01,2013-07-22 06:36:00,
2013-07-22 02:41:00,73.9,71.1,30.08,South,172,0.0,0.0,91,0.00,,---,0.00,VWS V14.01,2013-07-22 06:41:00,
2013-07-22 02:46:00,73.8,71.0,30.08,South,171,0.0,4.0,91,0.00,,---,0.00,VWS V14.01,2013-07-22 06:46:00,
2013-07-22 02:51:00,73.7,70.9,30.08,South,171,1.0,1.0,91,0.00,,---,0.00,VWS V14.01,2013-07-22 06:51:00,
2013-07-22 02:56:00,73.7,70.9,30.08,South,171,4.0,4.0,91,0.00,,---,0.00,VWS V14.01,2013-07-22 06:56:00,
2013-07-22 03:01:00,73.8,71.0,30.07,South,171,0.0,1.0,91,0.00,,---,0.00,VWS V14.01,2013-07-22 07:01:00,
2013-07-22 03:06:00,73.8,71.0,30.07,South,172,0.0,2.0,91,0.00,,---,0.00,VWS V14.01,2013-07-22 07:06:00,
2013-07-22 03:11:00,73.8,71.0,30.07,South,171,0.0,0.0,91,0.00,,---,0.00,VWS V14.01,2013-07-22 07:11:00,
2013-07-22 03:16:00,73.8,71.0,30.07,South,171,0.0,0.0,91,0.00,,---,0.00,VWS V14.01,2013-07-22 07:16:00,
2013-07-22 03:21:00,73.8,71.0,30.07,South,171,0.0,0.0,91,0.00,,---,0.00,VWS V14.01,2013-07-22 07:21:00,
2013-07-22 03:26:00,73.7,70.9,30.07,South,171,0.0,2.0,91,0.00,,---,0.00,VWS V14.01,2013-07-22 07:26:00,
2013-07-22 03:31:00,73.7,70.9,30.07,South,171,1.0,1.0,91,0.00,,---,0.00,VWS V14.01,2013-07-22 07:31:00,
2013-07-22 03:36:00,73.8,71.0,30.07,South,171,0.0,5.0,91,0.00,,---,0.00,VWS V14.01,2013-07-22 07:36:00,
2013-07-22 03:41:00,73.9,71.1,30.07,South,171,0.0,0.0,91,0.00,,---,0.00,VWS V14.01,2013-07-22 07:41:00,
2013-07-22 03:46:00,74.0,71.2,30.06,South,171,4.0,4.0,91,0.00,,---,0.00,VWS V14.01,2013-07-22 07:46:00,
2013-07-22 03:51:00,74.0,71.2,30.06,South,171,2.0,2.0,91,0.00,,---,0.00,VWS V14.01,2013-07-22 07:51:00,
2013-07-22 03:56:00,74.1,71.3,30.06,South,171,2.0,4.0,91,0.00,,---,0.00,VWS V14.01,2013-07-22 07:56:00,
2013-07-22 04:01:00,74.0,71.5,30.06,South,172,0.0,0.0,92,0.00,,---,0.00,VWS V14.01,2013-07-22 08:01:00,
2013-07-22 04:06:00,73.9,71.4,30.06,South,171,0.0,1.0,92,0.00,,---,0.00,VWS V14.01,2013-07-22 08:06:00,
2013-07-22 04:11:00,73.9,71.4,30.06,South,171,0.0,0.0,92,0.00,,---,0.00,VWS V14.01,2013-07-22 08:11:00,
2013-07-22 04:16:00,73.9,71.4,30.06,South,171,0.0,1.0,92,0.00,,---,0.00,VWS V14.01,2013-07-22 08:16:00,
2013-07-22 04:21:00,73.9,71.4,30.06,South,171,0.0,0.0,92,0.00,,---,0.00,VWS V14.01,2013-07-22 08:21:00,
2013-07-22 04:26:00,73.8,71.3,30.05,South,172,0.0,2.0,92,0.00,,---,0.00,VWS V14.01,2013-07-22 08:26:00,
2013-07-22 04:31:00,73.7,71.2,30.06,South,171,0.0,0.0,92,0.00,,---,0.00,VWS V14.01,2013-07-22 08:31:00,
2013-07-22 04:36:00,73.7,71.2,30.06,South,172,1.0,2.0,92,0.00,,---,0.00,VWS V14.01,2013-07-22 08:36:00,
2013-07-22 04:41:00,73.7,71.2,30.06,South,171,0.0,0.0,92,0.00,,---,0.00,VWS V14.01,2013-07-22 08:41:00,
2013-07-22 04:46:00,74.0,71.5,30.06,South,171,0.0,2.0,92,0.00,,---,0.00,VWS V14.01,2013-07-22 08:46:00,
2013-07-22 04:51:00,74.0,71.5,30.06,South,171,0.0,0.0,92,0.00,,---,0.00,VWS V14.01,2013-07-22 08:51:00,
2013-07-22 04:56:00,74.0,71.5,30.06,South,171,0.0,2.0,92,0.00,,---,0.00,VWS V14.01,2013-07-22 08:56:00,
2013-07-22 05:01:00,74.1,71.6,30.06,South,171,1.0,1.0,92,0.00,,---,0.00,VWS V14.01,2013-07-22 09:01:00,
2013-07-22 05:06:00,74.2,71.7,30.06,South,171,0.0,4.0,92,0.00,,---,0.00,VWS V14.01,2013-07-22 09:06:00,
2013-07-22 05:11:00,74.0,71.5,30.06,South,171,2.0,2.0,92,0.00,,---,0.00,VWS V14.01,2013-07-22 09:11:00,
2013-07-22 05:16:00,73.8,71.3,30.06,South,171,4.0,6.0,92,0.00,,---,0.00,VWS V14.01,2013-07-22 09:16:00,
2013-07-22 05:21:00,73.7,71.2,30.07,South,172,0.0,2.0,92,0.00,,---,0.00,VWS V14.01,2013-07-22 09:21:00,
2013-07-22 05:26:00,73.7,71.2,30.07,South,171,1.0,5.0,92,0.00,,---,0.00,VWS V14.01,2013-07-22 09:26:00,
2013-07-22 05:31:00,73.7,71.2,30.07,South,171,0.0,0.0,92,0.00,,---,0.00,VWS V14.01,2013-07-22 09:31:00,
2013-07-22 05:36:00,73.6,71.1,30.07,South,171,0.0,2.0,92,0.00,,---,0.00,VWS V14.01,2013-07-22 09:36:00,
2013-07-22 05:41:00,73.5,71.0,30.07,South,171,0.0,1.0,92,0.00,,---,0.00,VWS V14.01,2013-07-22 09:41:00,
2013-07-22 05:46:00,73.5,71.0,30.07,South,171,2.0,5.0,92,0.00,,---,0.00,VWS V14.01,2013-07-22 09:46:00,
2013-07-22 05:51:00,73.5,71.0,30.07,South,171,1.0,2.0,92,0.00,,---,0.00,VWS V14.01,2013-07-22 09:51:00,
2013-07-22 05:56:00,73.4,70.9,30.08,South,172,0.0,4.0,92,0.00,,---,0.00,VWS V14.01,2013-07-22 09:56:00,
2013-07-22 06:01:00,73.4,70.9,30.08,South,172,0.0,0.0,92,0.00,,---,0.00,VWS V14.01,2013-07-22 10:01:00,
2013-07-22 06:06:00,73.3,70.8,30.08,South,172,2.0,4.0,92,0.00,,---,0.00,VWS V14.01,2013-07-22 10:06:00,
2013-07-22 06:11:00,73.3,70.8,30.08,South,171,0.0,0.0,92,0.00,,---,0.00,VWS V14.01,2013-07-22 10:11:00,
2013-07-22 06:16:00,73.2,70.7,30.08,South,171,1.0,4.0,92,0.00,,---,0.00,VWS V14.01,2013-07-22 10:16:00,
2013-07-22 06:21:00,73.2,70.7,30.08,South,172,1.0,1.0,92,0.00,,---,0.00,VWS V14.01,2013-07-22 10:21:00,
2013-07-22 06:26:00,73.1,70.6,30.08,South,172,1.0,6.0,92,0.00,,---,0.00,VWS V14.01,2013-07-22 10:26:00,
2013-07-22 06:31:00,73.1,70.6,30.08,South,172,0.0,0.0,92,0.00,,---,0.00,VWS V14.01,2013-07-22 10:31:00,
2013-07-22 06:36:00,73.0,70.5,30.08,South,171,0.0,2.0,92,0.00,,---,0.00,VWS V14.01,2013-07-22 10:36:00,
2013-07-22 06:41:00,72.9,70.4,30.08,South,171,2.0,2.0,92,0.00,,---,0.00,VWS V14.01,2013-07-22 10:41:00,
2013-07-22 06:46:00,72.9,70.4,30.08,South,171,0.0,5.0,92,0.00,,---,0.00,VWS V14.01,2013-07-22 10:46:00,
2013-07-22 06:51:00,72.8,70.3,30.08,South,172,0.0,0.0,92,0.00,,---,0.00,VWS V14.01,2013-07-22 10:51:00,
2013-07-22 06:56:00,72.8,70.3,30.09,South,171,0.0,2.0,92,0.00,,---,0.00,VWS V14.01,2013-07-22 10:56:00,
2013-07-22 07:01:00,72.8,70.3,30.09,SW,224,0.0,0.0,92,0.00,,---,0.00,VWS V14.01,2013-07-22 11:01:00,
2013-07-22 07:06:00,72.7,70.2,30.09,SW,224,0.0,0.0,92,0.00,,---,0.00,VWS V14.01,2013-07-22 11:06:00,
2013-07-22 07:11:00,72.7,70.2,30.09,SW,224,0.0,0.0,92,0.00,,---,0.00,VWS V14.01,2013-07-22 11:11:00,
2013-07-22 07:16:00,72.9,70.4,30.09,SW,224,0.0,3.0,92,0.00,,---,0.00,VWS V14.01,2013-07-22 11:16:00,
2013-07-22 07:21:00,73.3,70.8,30.09,SW,224,0.0,0.0,92,0.00,,---,0.00,VWS V14.01,2013-07-22 11:21:00,
2013-07-22 07:26:00,73.9,71.4,30.09,SW,224,2.0,2.0,92,0.00,,---,0.00,VWS V14.01,2013-07-22 11:26:00,
2013-07-22 07:31:00,74.4,71.9,30.09,SSW,205,4.0,4.0,92,0.00,,---,0.00,VWS V14.01,2013-07-22 11:31:00,
2013-07-22 07:36:00,74.9,72.4,30.09,SSW,198,0.0,4.0,92,0.00,,---,0.00,VWS V14.01,2013-07-22 11:36:00,
2013-07-22 07:41:00,75.5,73.0,30.09,SSW,198,0.0,0.0,92,0.00,,---,0.00,VWS V14.01,2013-07-22 11:41:00,
2013-07-22 07:46:00,76.0,73.5,30.10,South,175,2.0,5.0,92,0.00,,---,0.00,VWS V14.01,2013-07-22 11:46:00,
2013-07-22 07:51:00,76.4,73.6,30.10,South,175,0.0,2.0,91,0.00,,---,0.00,VWS V14.01,2013-07-22 11:51:00,
2013-07-22 07:55:00,76.7,73.6,30.10,South,175,2.0,4.0,90,0.00,,---,0.00,VWS V14.01,2013-07-22 11:55:00,
2013-07-22 08:00:00,76.7,73.2,30.10,South,188,1.0,1.0,89,0.00,,---,0.00,VWS V14.01,2013-07-22 12:00:00,
2013-07-22 08:06:00,77.0,73.5,30.10,South,187,3.0,5.0,89,0.00,,---,0.00,VWS V14.01,2013-07-22 12:06:00,
2013-07-22 08:10:00,77.5,74.0,30.10,South,184,3.0,4.0,89,0.00,,---,0.00,VWS V14.01,2013-07-22 12:10:00,
2013-07-22 08:15:00,78.2,74.7,30.11,SSW,195,1.0,4.0,89,0.00,,---,0.00,VWS V14.01,2013-07-22 12:15:00,
2013-07-22 08:20:00,78.8,74.6,30.11,South,182,3.0,3.0,87,0.00,,---,0.00,VWS V14.01,2013-07-22 12:20:00,
2013-07-22 08:25:00,79.3,75.1,30.11,South,189,3.0,5.0,87,0.00,,---,0.00,VWS V14.01,2013-07-22 12:25:00,
2013-07-22 08:30:00,79.8,75.2,30.11,SSE,165,1.0,2.0,86,0.00,,---,0.00,VWS V14.01,2013-07-22 12:30:00,
2013-07-22 08:36:00,80.0,75.4,30.11,SSE,165,4.0,6.0,86,0.00,,---,0.00,VWS V14.01,2013-07-22 12:36:00,
2013-07-22 08:40:00,80.4,75.8,30.11,South,190,2.0,2.0,86,0.00,,---,0.00,VWS V14.01,2013-07-22 12:40:00,
2013-07-22 08:46:00,80.9,76.0,30.11,South,188,2.0,5.0,85,0.00,,---,0.00,VWS V14.01,2013-07-22 12:46:00,
2013-07-22 08:50:00,81.6,76.3,30.11,WSW,240,0.0,0.0,84,0.00,,---,0.00,VWS V14.01,2013-07-22 12:50:00,
2013-07-22 08:55:00,82.1,76.4,30.11,South,182,6.0,6.0,83,0.00,,---,0.00,VWS V14.01,2013-07-22 12:55:00,
2013-07-22 09:00:00,82.3,76.6,30.11,South,183,2.0,2.0,83,0.00,,---,0.00,VWS V14.01,2013-07-22 13:00:00,
2013-07-22 09:05:00,82.3,77.0,30.11,South,186,5.0,5.0,84,0.00,,---,0.00,VWS V14.01,2013-07-22 13:05:00,
2013-07-22 09:10:00,82.6,76.9,30.12,SSW,207,5.0,5.0,83,0.00,,---,0.00,VWS V14.01,2013-07-22 13:10:00,
2013-07-22 09:15:00,82.9,77.2,30.11,SSW,197,3.0,6.0,83,0.00,,---,0.00,VWS V14.01,2013-07-22 13:15:00,
2013-07-22 09:20:00,83.6,77.2,30.11,SW,232,3.0,5.0,81,0.00,,---,0.00,VWS V14.01,2013-07-22 13:20:00,
2013-07-22 09:25:00,84.0,77.5,30.12,SSW,199,2.0,8.0,81,0.00,,---,0.00,VWS V14.01,2013-07-22 13:25:00,
2013-07-22 09:30:00,84.4,77.9,30.12,SSW,209,6.0,6.0,81,0.00,,---,0.00,VWS V14.01,2013-07-22 13:30:00,
2013-07-22 09:35:00,83.8,77.3,30.11,SW,217,2.0,7.0,81,0.00,,---,0.00,VWS V14.01,2013-07-22 13:35:00,
2013-07-22 09:40:00,83.9,77.4,30.12,SSW,203,4.0,4.0,81,0.00,,---,0.00,VWS V14.01,2013-07-22 13:40:00,
2013-07-22 09:45:00,84.2,77.7,30.12,SSW,209,3.0,6.0,81,0.00,,---,0.00,VWS V14.01,2013-07-22 13:45:00,
2013-07-22 09:50:00,84.7,77.8,30.12,SSW,211,1.0,1.0,80,0.00,,---,0.00,VWS V14.01,2013-07-22 13:50:00,
2013-07-22 09:55:00,84.8,77.6,30.12,SSW,196,4.0,9.0,79,0.00,,---,0.00,VWS V14.01,2013-07-22 13:55:00,
2013-07-22 10:00:00,85.2,77.9,30.12,SSE,165,8.0,8.0,79,0.00,,---,0.00,VWS V14.01,2013-07-22 14:00:00,
2013-07-22 10:05:00,85.2,77.6,30.12,SSE,161,4.0,8.0,78,0.00,,---,0.00,VWS V14.01,2013-07-22 14:05:00,
2013-07-22 10:10:00,85.6,78.3,30.12,South,170,5.0,7.0,79,0.00,,---,0.00,VWS V14.01,2013-07-22 14:10:00,
2013-07-22 10:15:00,85.7,77.7,30.12,South,188,5.0,8.0,77,0.00,,---,0.00,VWS V14.01,2013-07-22 14:15:00,
2013-07-22 10:20:00,85.6,78.0,30.11,South,186,5.0,7.0,78,0.00,,---,0.00,VWS V14.01,2013-07-22 14:20:00,
2013-07-22 10:25:00,85.8,78.2,30.11,South,171,4.0,8.0,78,0.00,,---,0.00,VWS V14.01,2013-07-22 14:25:00,
2013-07-22 10:30:00,85.8,77.4,30.12,SSW,193,5.0,7.0,76,0.00,,---,0.00,VWS V14.01,2013-07-22 14:30:00,
2013-07-22 10:35:00,86.2,78.2,30.12,SSW,196,4.0,7.0,77,0.00,,---,0.00,VWS V14.01,2013-07-22 14:35:00,
2013-07-22 10:40:00,86.4,78.7,30.12,SSW,202,6.0,6.0,78,0.00,,---,0.00,VWS V14.01,2013-07-22 14:40:00,
2013-07-22 10:45:00,86.6,78.5,30.12,SSW,201,2.0,7.0,77,0.00,,---,0.00,VWS V14.01,2013-07-22 14:45:00,
2013-07-22 10:50:00,86.7,77.8,30.11,SSE,168,5.0,5.0,75,0.00,,---,0.00,VWS V14.01,2013-07-22 14:50:00,
2013-07-22 10:55:00,86.9,78.4,30.11,South,178,5.0,10.0,76,0.00,,---,0.00,VWS V14.01,2013-07-22 14:55:00,
2013-07-22 11:00:00,87.1,78.6,30.11,SSW,192,4.0,4.0,76,0.00,,---,0.00,VWS V14.01,2013-07-22 15:00:00,
2013-07-22 11:05:00,87.2,79.1,30.11,SW,221,5.0,9.0,77,0.00,,---,0.00,VWS V14.01,2013-07-22 15:05:00,
2013-07-22 11:10:00,87.1,77.8,30.11,South,180,5.0,5.0,74,0.00,,---,0.00,VWS V14.01,2013-07-22 15:10:00,
2013-07-22 11:15:00,87.6,78.7,30.11,SSW,197,3.0,10.0,75,0.00,,---,0.00,VWS V14.01,2013-07-22 15:15:00,
2013-07-22 11:20:00,87.9,79.0,30.11,SSW,207,4.0,11.0,75,0.00,,---,0.00,VWS V14.01,2013-07-22 15:20:00,
2013-07-22 11:25:00,88.1,77.9,30.11,SSW,198,1.0,8.0,72,0.00,,---,0.00,VWS V14.01,2013-07-22 15:25:00,
2013-07-22 11:30:00,88.1,77.9,30.11,SSW,203,5.0,10.0,72,0.00,,---,0.00,VWS V14.01,2013-07-22 15:30:00,
2013-07-22 11:35:00,88.3,79.0,30.11,SSW,207,6.0,8.0,74,0.00,,---,0.00,VWS V14.01,2013-07-22 15:35:00,
2013-07-22 11:40:00,88.6,78.0,30.11,South,182,10.0,10.0,71,0.00,,---,0.00,VWS V14.01,2013-07-22 15:40:00,
2013-07-22 11:45:00,88.4,77.4,30.11,West,272,6.0,10.0,70,0.00,,---,0.00,VWS V14.01,2013-07-22 15:45:00,
2013-07-22 11:50:00,88.2,79.3,30.11,SSW,213,0.0,10.0,75,0.00,,---,0.00,VWS V14.01,2013-07-22 15:50:00,
2013-07-22 11:55:00,87.8,79.3,30.11,SSW,196,8.0,8.0,76,0.00,,---,0.00,VWS V14.01,2013-07-22 15:55:00,
2013-07-22 12:00:00,87.8,77.2,30.11,South,177,6.0,9.0,71,0.00,,---,0.00,VWS V14.01,2013-07-22 16:00:00,
2013-07-22 12:05:00,88.6,78.4,30.11,SW,232,9.0,11.0,72,0.00,,---,0.00,VWS V14.01,2013-07-22 16:05:00,
2013-07-22 12:10:00,88.9,78.3,30.11,SW,219,3.0,11.0,71,0.00,,---,0.00,VWS V14.01,2013-07-22 16:10:00,
2013-07-22 12:15:00,89.1,78.9,30.10,SSW,194,4.0,8.0,72,0.00,,---,0.00,VWS V14.01,2013-07-22 16:15:00,
2013-07-22 12:20:00,89.6,78.1,30.10,SSW,213,5.0,8.0,69,0.00,,---,0.00,VWS V14.01,2013-07-22 16:20:00,
2013-07-22 12:25:00,89.8,78.7,30.10,SW,215,6.0,13.0,70,0.00,,---,0.00,VWS V14.01,2013-07-22 16:25:00,
2013-07-22 12:30:00,89.5,78.9,30.10,South,185,5.0,13.0,71,0.00,,---,0.00,VWS V14.01,2013-07-22 16:30:00,
2013-07-22 12:35:00,89.7,78.2,30.10,SSE,167,10.0,11.0,69,0.00,,---,0.00,VWS V14.01,2013-07-22 16:35:00,
2013-07-22 12:40:00,89.7,78.2,30.10,South,184,6.0,11.0,69,0.00,,---,0.00,VWS V14.01,2013-07-22 16:40:00,
2013-07-22 12:45:00,90.0,78.5,30.10,SSW,198,6.0,12.0,69,0.00,,---,0.00,VWS V14.01,2013-07-22 16:45:00,
2013-07-22 12:50:00,89.7,78.2,30.10,SSW,208,3.0,12.0,69,0.00,,---,0.00,VWS V14.01,2013-07-22 16:50:00,
2013-07-22 12:55:00,90.1,78.1,30.10,SSW,197,7.0,12.0,68,0.00,,---,0.00,VWS V14.01,2013-07-22 16:55:00,
2013-07-22 13:00:00,89.9,76.6,30.10,SW,223,5.0,12.0,65,0.00,,---,0.00,VWS V14.01,2013-07-22 17:00:00,
2013-07-22 13:05:00,89.7,77.7,30.09,SSE,157,5.0,10.0,68,0.00,,---,0.00,VWS V14.01,2013-07-22 17:05:00,
2013-07-22 13:10:00,89.7,78.2,30.09,SW,220,7.0,15.0,69,0.00,,---,0.00,VWS V14.01,2013-07-22 17:10:00,
2013-07-22 13:15:00,89.9,78.8,30.09,SSW,213,4.0,11.0,70,0.00,,---,0.00,VWS V14.01,2013-07-22 17:15:00,
2013-07-22 13:20:00,89.9,77.5,30.09,SSE,159,7.0,11.0,67,0.00,,---,0.00,VWS V14.01,2013-07-22 17:20:00,
2013-07-22 13:25:00,90.1,78.1,30.08,SSW,193,5.0,11.0,68,0.00,,---,0.00,VWS V14.01,2013-07-22 17:25:00,
2013-07-22 13:30:00,90.2,79.1,30.08,South,178,7.0,11.0,70,0.00,,---,0.00,VWS V14.01,2013-07-22 17:30:00,
2013-07-22 13:35:00,90.1,77.2,30.08,South,190,5.0,11.0,66,0.00,,---,0.00,VWS V14.01,2013-07-22 17:35:00,
2013-07-22 13:40:00,90.4,79.3,30.08,South,181,5.0,11.0,70,0.00,,---,0.00,VWS V14.01,2013-07-22 17:40:00,
2013-07-22 13:45:00,90.5,76.7,30.08,SE,132,8.0,12.0,64,0.00,,---,0.00,VWS V14.01,2013-07-22 17:45:00,
2013-07-22 13:50:00,90.6,76.8,30.08,SSE,155,1.0,12.0,64,0.00,,---,0.00,VWS V14.01,2013-07-22 17:50:00,
2013-07-22 13:55:00,90.6,78.6,30.08,SW,223,8.0,10.0,68,0.00,,---,0.00,VWS V14.01,2013-07-22 17:55:00,
2013-07-22 14:00:00,91.2,78.3,30.08,South,186,6.0,10.0,66,0.00,,---,0.00,VWS V14.01,2013-07-22 18:00:00,
2013-07-22 14:05:00,90.7,76.8,30.08,SSW,196,1.0,12.0,64,0.00,,---,0.00,VWS V14.01,2013-07-22 18:05:00,
2013-07-22 14:11:00,90.5,77.6,30.08,SSW,198,6.0,7.0,66,0.00,,---,0.00,VWS V14.01,2013-07-22 18:11:00,
2013-07-22 14:16:00,91.4,77.0,30.08,West,263,4.0,12.0,63,0.00,,---,0.00,VWS V14.01,2013-07-22 18:16:00,
2013-07-22 14:21:00,91.4,76.1,30.08,SW,227,6.0,6.0,61,0.00,,---,0.00,VWS V14.01,2013-07-22 18:21:00,
2013-07-22 14:26:00,91.1,76.3,30.07,SSW,194,10.0,10.0,62,0.00,,---,0.00,VWS V14.01,2013-07-22 18:26:00,
2013-07-22 14:31:00,91.1,76.3,30.07,South,183,6.0,7.0,62,0.00,,---,0.00,VWS V14.01,2013-07-22 18:31:00,
2013-07-22 14:36:00,90.6,76.8,30.07,South,175,5.0,7.0,64,0.00,,---,0.00,VWS V14.01,2013-07-22 18:36:00,
2013-07-22 14:41:00,89.9,75.1,30.07,SSW,213,6.0,6.0,62,0.00,,---,0.00,VWS V14.01,2013-07-22 18:41:00,
2013-07-22 14:47:00,87.6,76.2,30.08,NW,306,12.0,17.0,69,0.02,,---,0.02,VWS V14.01,2013-07-22 18:47:00,
2013-07-22 14:52:00,82.1,74.6,30.07,North,349,19.0,19.0,78,0.07,,---,0.07,VWS V14.01,2013-07-22 18:52:00,
2013-07-22 14:57:00,78.6,72.7,30.07,NNW,339,12.0,19.0,82,0.15,,---,0.15,VWS V14.01,2013-07-22 18:57:00,
2013-07-22 15:02:00,77.6,73.1,30.07,NNE,13,6.0,7.0,86,0.15,,---,0.15,VWS V14.01,2013-07-22 19:02:00,
2013-07-22 15:07:00,77.9,74.1,30.08,East,100,11.0,16.0,88,0.26,,---,0.26,VWS V14.01,2013-07-22 19:07:00,
2013-07-22 15:12:00,77.5,73.3,30.06,ENE,69,7.0,12.0,87,0.37,,---,0.37,VWS V14.01,2013-07-22 19:12:00,
2013-07-22 15:17:00,76.8,73.0,30.06,East,83,8.0,13.0,88,0.37,,---,0.37,VWS V14.01,2013-07-22 19:17:00,
2013-07-22 15:22:00,76.0,72.2,30.07,North,360,4.0,7.0,88,0.37,,---,0.37,VWS V14.01,2013-07-22 19:22:00,
2013-07-22 15:27:00,75.5,71.7,30.07,NE,37,6.0,8.0,88,0.37,,---,0.37,VWS V14.01,2013-07-22 19:27:00,
2013-07-22 15:32:00,74.5,70.4,30.07,NE,47,5.0,13.0,87,0.37,,---,0.37,VWS V14.01,2013-07-22 19:32:00,
2013-07-22 15:37:00,74.1,70.3,30.07,NE,34,2.0,13.0,88,0.37,,---,0.37,VWS V14.01,2013-07-22 19:37:00,
2013-07-22 15:42:00,74.1,70.7,30.07,NNW,343,4.0,5.0,89,0.38,,---,0.38,VWS V14.01,2013-07-22 19:42:00,
2013-07-22 15:47:00,74.2,71.1,30.08,East,95,8.0,9.0,90,0.38,,---,0.38,VWS V14.01,2013-07-22 19:47:00,
2013-07-22 15:52:00,74.7,71.6,30.07,SE,143,5.0,6.0,90,0.32,,---,0.38,VWS V14.01,2013-07-22 19:52:00,
2013-07-22 15:57:00,74.8,71.7,30.07,SSE,155,6.0,9.0,90,0.32,,---,0.38,VWS V14.01,2013-07-22 19:57:00,
2013-07-22 16:02:00,74.7,71.6,30.07,SSE,153,6.0,8.0,90,0.23,,---,0.38,VWS V14.01,2013-07-22 20:02:00,
2013-07-22 16:07:00,74.9,71.8,30.07,SSE,157,8.0,9.0,90,0.23,,---,0.38,VWS V14.01,2013-07-22 20:07:00,
2013-07-22 16:13:00,75.1,72.0,30.06,SE,139,5.0,7.0,90,0.01,,---,0.38,VWS V14.01,2013-07-22 20:13:00,
2013-07-22 16:16:00,75.2,72.1,30.06,SE,140,5.0,7.0,90,0.01,,---,0.38,VWS V14.01,2013-07-22 20:16:00,
2013-07-22 16:17:00,75.2,72.1,30.06,SE,140,4.0,7.0,90,0.01,,---,0.38,VWS V14.01,2013-07-22 20:17:00,
2013-07-22 16:22:00,75.5,72.7,30.06,SE,140,2.0,5.0,91,0.01,,---,0.38,VWS V14.01,2013-07-22 20:22:00,
2013-07-22 16:27:00,75.8,73.0,30.07,SE,140,4.0,7.0,91,0.01,,---,0.38,VWS V14.01,2013-07-22 20:27:00,
2013-07-22 16:32:00,75.9,73.1,30.08,SSE,167,7.0,8.0,91,0.01,,---,0.38,VWS V14.01,2013-07-22 20:32:00,
2013-07-22 16:37:00,75.8,72.7,30.08,South,169,2.0,9.0,90,0.01,,---,0.38,VWS V14.01,2013-07-22 20:37:00,
2013-07-22 16:42:00,75.7,72.6,30.08,SSE,164,5.0,7.0,90,0.01,,---,0.38,VWS V14.01,2013-07-22 20:42:00,
2013-07-22 16:43:00,75.7,72.6,30.08,SSE,155,6.0,7.0,90,0.01,,---,0.38,VWS V14.01,2013-07-22 20:43:00,
2013-07-22 16:48:00,75.6,72.5,30.07,SE,146,4.0,8.0,90,0.01,,---,0.38,VWS V14.01,2013-07-22 20:48:00,
2013-07-22 16:53:00,75.5,72.4,30.07,South,171,5.0,8.0,90,0.00,,---,0.38,VWS V14.01,2013-07-22 20:53:00,
2013-07-22 16:58:00,75.3,71.8,30.06,SSE,153,5.0,10.0,89,0.00,,---,0.38,VWS V14.01,2013-07-22 20:58:00,
2013-07-22 17:03:00,75.1,71.6,30.05,SSE,167,1.0,6.0,89,0.00,,---,0.38,VWS V14.01,2013-07-22 21:03:00,
2013-07-22 17:08:00,74.9,71.4,30.06,SSE,159,4.0,7.0,89,0.00,,---,0.38,VWS V14.01,2013-07-22 21:08:00,
2013-07-22 17:13:00,74.7,71.2,30.06,SSE,157,4.0,6.0,89,0.00,,---,0.38,VWS V14.01,2013-07-22 21:13:00,
2013-07-22 17:18:00,74.7,71.2,30.06,SSE,157,2.0,6.0,89,0.00,,---,0.38,VWS V14.01,2013-07-22 21:18:00,
2013-07-22 17:23:00,74.8,71.7,30.07,WSW,237,2.0,2.0,90,0.00,,---,0.38,VWS V14.01,2013-07-22 21:23:00,
2013-07-22 17:28:00,74.9,71.8,30.07,SE,143,7.0,8.0,90,0.00,,---,0.38,VWS V14.01,2013-07-22 21:28:00,
2013-07-22 17:33:00,74.8,71.3,30.08,SSE,159,4.0,4.0,89,0.00,,---,0.38,VWS V14.01,2013-07-22 21:33:00,
2013-07-22 17:38:00,74.8,71.3,30.08,SSE,161,0.0,5.0,89,0.00,,---,0.38,VWS V14.01,2013-07-22 21:38:00,
2013-07-22 17:43:00,74.8,71.3,30.08,SSE,161,0.0,0.0,89,0.00,,---,0.38,VWS V14.01,2013-07-22 21:43:00,
2013-07-22 17:47:00,74.7,71.2,30.07,SSE,161,0.0,0.0,89,0.00,,---,0.38,VWS V14.01,2013-07-22 21:47:00,
2013-07-22 17:52:00,74.8,71.3,30.07,SSE,161,0.0,0.0,89,0.00,,---,0.38,VWS V14.01,2013-07-22 21:52:00,
2013-07-22 17:58:00,74.7,71.2,30.07,SSE,161,0.0,1.0,89,0.00,,---,0.38,VWS V14.01,2013-07-22 21:58:00,
2013-07-22 18:02:00,74.9,71.8,30.08,East,92,7.0,7.0,90,0.00,,---,0.38,VWS V14.01,2013-07-22 22:02:00,
2013-07-22 18:07:00,74.9,71.8,30.07,East,82,2.0,7.0,90,0.00,,---,0.38,VWS V14.01,2013-07-22 22:07:00,
2013-07-22 18:12:00,74.9,71.4,30.07,East,82,1.0,2.0,89,0.00,,---,0.38,VWS V14.01,2013-07-22 22:12:00,
2013-07-22 18:18:00,75.2,71.7,30.08,East,82,1.0,3.0,89,0.00,,---,0.38,VWS V14.01,2013-07-22 22:18:00,
2013-07-22 18:23:00,75.3,71.8,30.08,East,82,3.0,4.0,89,0.00,,---,0.38,VWS V14.01,2013-07-22 22:23:00,
2013-07-22 18:28:00,75.3,71.8,30.08,East,82,0.0,4.0,89,0.00,,---,0.38,VWS V14.01,2013-07-22 22:28:00,
2013-07-22 18:33:00,75.5,72.0,30.08,East,82,0.0,0.0,89,0.00,,---,0.38,VWS V14.01,2013-07-22 22:33:00,
2013-07-22 18:38:00,75.5,72.0,30.08,East,82,0.0,0.0,89,0.00,,---,0.38,VWS V14.01,2013-07-22 22:38:00,
2013-07-22 18:43:00,75.6,72.1,30.08,East,82,0.0,0.0,89,0.00,,---,0.38,VWS V14.01,2013-07-22 22:43:00,
2013-07-22 18:48:00,75.7,72.2,30.08,East,82,1.0,2.0,89,0.00,,---,0.38,VWS V14.01,2013-07-22 22:48:00,
2013-07-22 18:53:00,75.7,72.2,30.09,East,82,0.0,0.0,89,0.00,,---,0.38,VWS V14.01,2013-07-22 22:53:00,
2013-07-22 18:58:00,75.8,72.3,30.08,East,82,0.0,2.0,89,0.00,,---,0.38,VWS V14.01,2013-07-22 22:58:00,
2013-07-22 19:03:00,75.8,72.3,30.08,East,82,0.0,0.0,89,0.00,,---,0.38,VWS V14.01,2013-07-22 23:03:00,
2013-07-22 19:08:00,75.9,72.4,30.08,East,82,2.0,3.0,89,0.00,,---,0.38,VWS V14.01,2013-07-22 23:08:00,
2013-07-22 19:12:00,75.9,72.4,30.08,East,82,0.0,2.0,89,0.00,,---,0.38,VWS V14.01,2013-07-22 23:12:00,
2013-07-22 19:17:00,75.9,72.4,30.08,East,82,2.0,2.0,89,0.00,,---,0.38,VWS V14.01,2013-07-22 23:17:00,
2013-07-22 19:22:00,76.0,72.5,30.07,East,82,0.0,0.0,89,0.00,,---,0.38,VWS V14.01,2013-07-22 23:22:00,
2013-07-22 19:27:00,76.0,72.5,30.07,East,82,0.0,0.0,89,0.00,,---,0.38,VWS V14.01,2013-07-22 23:27:00,
2013-07-22 19:32:00,76.1,72.6,30.07,East,82,0.0,0.0,89,0.00,,---,0.38,VWS V14.01,2013-07-22 23:32:00,
2013-07-22 19:37:00,76.1,72.6,30.07,East,82,0.0,0.0,89,0.00,,---,0.38,VWS V14.01,2013-07-22 23:37:00,
2013-07-22 19:42:00,76.1,72.6,30.07,East,82,3.0,4.0,89,0.00,,---,0.38,VWS V14.01,2013-07-22 23:42:00,
2013-07-22 19:47:00,76.2,72.7,30.07,East,82,1.0,4.0,89,0.00,,---,0.38,VWS V14.01,2013-07-22 23:47:00,
2013-07-22 19:52:00,76.1,72.6,30.07,East,82,2.0,4.0,89,0.00,,---,0.38,VWS V14.01,2013-07-22 23:52:00,
2013-07-22 19:57:00,76.0,72.2,30.06,East,82,4.0,4.0,88,0.00,,---,0.38,VWS V14.01,2013-07-22 23:57:00,
2013-07-22 20:02:00,76.0,72.5,30.07,East,82,0.0,2.0,89,0.00,,---,0.38,VWS V14.01,2013-07-23 00:02:00,
2013-07-22 20:07:00,76.0,72.5,30.07,East,82,0.0,2.0,89,0.00,,---,0.38,VWS V14.01,2013-07-23 00:07:00,
2013-07-22 20:12:00,76.1,72.6,30.07,East,82,0.0,3.0,89,0.00,,---,0.38,VWS V14.01,2013-07-23 00:12:00,
2013-07-22 20:17:00,76.0,72.5,30.06,East,82,1.0,3.0,89,0.00,,---,0.38,VWS V14.01,2013-07-23 00:17:00,
2013-07-22 20:22:00,76.0,72.5,30.06,East,82,4.0,4.0,89,0.00,,---,0.38,VWS V14.01,2013-07-23 00:22:00,
2013-07-22 20:27:00,75.9,72.4,30.06,East,82,0.0,4.0,89,0.00,,---,0.38,VWS V14.01,2013-07-23 00:27:00,
2013-07-22 20:32:00,75.8,72.3,30.06,East,82,0.0,0.0,89,0.00,,---,0.38,VWS V14.01,2013-07-23 00:32:00,
2013-07-22 20:37:00,75.7,72.2,30.06,East,82,0.0,3.0,89,0.00,,---,0.38,VWS V14.01,2013-07-23 00:37:00,
2013-07-22 20:42:00,75.6,72.1,30.05,East,82,0.0,0.0,89,0.00,,---,0.38,VWS V14.01,2013-07-23 00:42:00,
2013-07-22 20:47:00,75.5,72.0,30.05,East,82,0.0,0.0,89,0.00,,---,0.38,VWS V14.01,2013-07-23 00:47:00,
2013-07-22 20:52:00,75.3,71.8,30.06,East,82,0.0,0.0,89,0.00,,---,0.38,VWS V14.01,2013-07-23 00:52:00,
2013-07-22 20:57:00,75.1,72.0,30.06,East,82,0.0,0.0,90,0.00,,---,0.38,VWS V14.01,2013-07-23 00:57:00,
2013-07-22 21:02:00,75.1,72.0,30.06,East,82,0.0,1.0,90,0.00,,---,0.38,VWS V14.01,2013-07-23 01:02:00,
2013-07-22 21:07:00,74.9,71.8,30.06,East,82,0.0,1.0,90,0.00,,---,0.38,VWS V14.01,2013-07-23 01:07:00,
2013-07-22 21:12:00,74.8,71.7,30.06,East,82,0.0,0.0,90,0.00,,---,0.38,VWS V14.01,2013-07-23 01:12:00,
2013-07-22 21:17:00,74.7,71.6,30.07,East,82,0.0,0.0,90,0.00,,---,0.38,VWS V14.01,2013-07-23 01:17:00,
2013-07-22 21:22:00,74.6,71.8,30.07,East,82,0.0,0.0,91,0.00,,---,0.38,VWS V14.01,2013-07-23 01:22:00,
2013-07-22 21:27:00,74.5,71.7,30.07,East,82,0.0,0.0,91,0.00,,---,0.38,VWS V14.01,2013-07-23 01:27:00,
2013-07-22 21:32:00,74.4,71.6,30.07,East,82,0.0,0.0,91,0.00,,---,0.38,VWS V14.01,2013-07-23 01:32:00,
2013-07-22 21:37:00,74.3,71.5,30.07,East,82,0.0,0.0,91,0.00,,---,0.38,VWS V14.01,2013-07-23 01:37:00,
2013-07-22 21:42:00,74.2,71.4,30.07,East,82,0.0,0.0,91,0.00,,---,0.38,VWS V14.01,2013-07-23 01:42:00,
2013-07-22 21:47:00,74.2,71.4,30.07,East,82,0.0,0.0,91,0.00,,---,0.38,VWS V14.01,2013-07-23 01:47:00,
2013-07-22 21:52:00,74.1,71.3,30.08,East,82,0.0,0.0,91,0.00,,---,0.38,VWS V14.01,2013-07-23 01:52:00,
2013-07-22 21:57:00,74.0,71.2,30.08,East,82,0.0,0.0,91,0.00,,---,0.38,VWS V14.01,2013-07-23 01:57:00,
2013-07-22 22:02:00,73.9,71.1,30.08,East,82,0.0,0.0,91,0.00,,---,0.38,VWS V14.01,2013-07-23 02:02:00,
2013-07-22 22:07:00,73.9,71.1,30.08,East,82,0.0,0.0,91,0.00,,---,0.38,VWS V14.01,2013-07-23 02:07:00,
2013-07-22 22:12:00,73.9,71.1,30.08,East,82,0.0,0.0,91,0.00,,---,0.38,VWS V14.01,2013-07-23 02:12:00,
2013-07-22 22:17:00,73.8,71.0,30.08,East,82,0.0,0.0,91,0.00,,---,0.38,VWS V14.01,2013-07-23 02:17:00,
2013-07-22 22:22:00,73.9,71.1,30.08,East,82,0.0,0.0,91,0.00,,---,0.38,VWS V14.01,2013-07-23 02:22:00,
2013-07-22 22:27:00,73.8,71.0,30.08,East,82,0.0,0.0,91,0.00,,---,0.38,VWS V14.01,2013-07-23 02:27:00,
2013-07-22 22:32:00,73.7,70.9,30.08,East,82,0.0,0.0,91,0.00,,---,0.38,VWS V14.01,2013-07-23 02:32:00,
2013-07-22 22:37:00,73.8,71.0,30.09,East,82,0.0,0.0,91,0.00,,---,0.38,VWS V14.01,2013-07-23 02:37:00,
2013-07-22 22:42:00,73.8,71.0,30.09,East,82,0.0,0.0,91,0.00,,---,0.38,VWS V14.01,2013-07-23 02:42:00,
2013-07-22 22:47:00,73.8,71.3,30.09,East,82,0.0,0.0,92,0.00,,---,0.38,VWS V14.01,2013-07-23 02:47:00,
2013-07-22 22:52:00,73.7,71.2,30.09,East,82,0.0,0.0,92,0.00,,---,0.38,VWS V14.01,2013-07-23 02:52:00,
2013-07-22 22:57:00,73.7,71.2,30.09,East,82,0.0,0.0,92,0.00,,---,0.38,VWS V14.01,2013-07-23 02:57:00,
2013-07-22 23:02:00,73.6,71.1,30.09,East,82,0.0,0.0,92,0.00,,---,0.38,VWS V14.01,2013-07-23 03:02:00,
2013-07-22 23:07:00,73.5,71.0,30.09,East,82,0.0,0.0,92,0.00,,---,0.38,VWS V14.01,2013-07-23 03:07:00,
2013-07-22 23:12:00,73.6,71.1,30.09,East,82,0.0,0.0,92,0.00,,---,0.38,VWS V14.01,2013-07-23 03:12:00,
2013-07-22 23:17:00,73.5,71.0,30.09,East,82,0.0,0.0,92,0.00,,---,0.38,VWS V14.01,2013-07-23 03:17:00,
2013-07-22 23:22:00,73.5,71.0,30.09,East,82,0.0,0.0,92,0.00,,---,0.38,VWS V14.01,2013-07-23 03:22:00,
2013-07-22 23:27:00,73.4,70.9,30.09,East,82,0.0,0.0,92,0.00,,---,0.38,VWS V14.01,2013-07-23 03:27:00,
2013-07-22 23:32:00,73.4,70.9,30.09,East,82,0.0,0.0,92,0.00,,---,0.38,VWS V14.01,2013-07-23 03:32:00,
2013-07-22 23:37:00,73.4,70.9,30.09,East,82,0.0,0.0,92,0.00,,---,0.38,VWS V14.01,2013-07-23 03:37:00,
2013-07-22 23:42:00,73.4,70.9,30.09,East,82,0.0,0.0,92,0.00,,---,0.38,VWS V14.01,2013-07-23 03:42:00,
2013-07-22 23:47:00,73.4,70.9,30.09,East,82,0.0,0.0,92,0.00,,---,0.38,VWS V14.01,2013-07-23 03:47:00,
2013-07-22 23:52:00,73.3,70.8,30.08,East,82,0.0,0.0,92,0.00,,---,0.38,VWS V14.01,2013-07-23 03:52:00,
2013-07-22 23:57:00,73.4,70.9,30.09,East,82,0.0,0.0,92,0.00,,---,0.38,VWS V14.01,2013-07-23 03:57:00,